Time;durP1;ratioP1;P1;durP2;ratioP2;P2;SDS_P1;SDS_P2;PMS_P1;PMS_P2;Temp;Humidity;BMP_temperature;BMP_pressure;BME280_temperature;BME280_humidity;BME280_pressure;Samples;Min_cycle;Max_cycle;Signal;HPM_P1;HPM_P2
2022/07/28 00:00:33;;;;;;;5.70;1.70;;;;;;;;;;5033370;28;20054;-79
2022/07/28 00:02:59;;;;;;;8.82;2.10;;;11.50;99.90;;;;;;5015473;28;20057;-79
2022/07/28 00:05:25;;;;;;;7.53;1.90;;;11.60;99.90;;;;;;5015705;28;20518;-79
2022/07/28 00:07:51;;;;;;;10.82;2.17;;;11.40;99.90;;;;;;5015782;28;20049;-79
2022/07/28 00:10:17;;;;;;;5.05;2.05;;;;;;;;;;5033330;28;20455;-79
2022/07/28 00:12:43;;;;;;;5.45;1.90;;;;;;;;;;5033178;28;20132;-79
2022/07/28 00:15:09;;;;;;;9.50;2.10;;;11.30;99.90;;;;;;5015509;28;20195;-79
2022/07/28 00:17:35;;;;;;;4.90;2.00;;;;;;;;;;5032910;28;20108;-81
2022/07/28 00:20:02;;;;;;;5.45;2.20;;;;;;;;;;5033238;28;20128;-79
2022/07/28 00:22:28;;;;;;;3.80;1.90;;;;;;;;;;5036571;28;20057;-78
2022/07/28 00:24:54;;;;;;;2.80;1.80;;;;;;;;;;5037249;28;20132;-79
2022/07/28 00:27:20;;;;;;;5.85;2.00;;;;;;;;;;5037315;28;20141;-79
2022/07/28 00:29:46;;;;;;;12.27;2.08;;;;;;;;;;5037205;28;20144;-79
2022/07/28 00:32:12;;;;;;;6.05;2.10;;;;;;;;;;5036976;28;20412;-80
2022/07/28 00:34:38;;;;;;;5.43;2.10;;;;;;;;;;5037531;28;20407;-80
2022/07/28 00:37:04;;;;;;;5.57;1.98;;;;;;;;;;5037062;28;20095;-80
2022/07/28 00:39:30;;;;;;;7.88;2.10;;;;;;;;;;5019298;28;20084;-80
2022/07/28 00:41:56;;;;;;;5.07;1.85;;;;;;;;;;5037074;28;20410;-79
2022/07/28 00:44:22;;;;;;;6.72;1.90;;;;;;;;;;5019140;28;20053;-80
2022/07/28 00:46:49;;;;;;;4.57;1.98;;;;;;;;;;5036881;28;20133;-80
2022/07/28 00:49:18;;;;;;;5.60;1.60;;;;;;;;;;5036538;28;20056;-80
2022/07/28 00:51:45;;;;;;;5.25;1.80;;;11.10;99.90;;;;;;5036712;28;20411;-80
2022/07/28 00:54:11;;;;;;;5.00;2.00;;;;;;;;;;5002910;28;20086;-80
2022/07/28 00:56:38;;;;;;;5.20;2.17;;;;;;;;;;5036634;28;20059;-80
2022/07/28 00:59:04;;;;;;;6.90;2.10;;;;;;;;;;5036664;28;20065;-80
2022/07/28 01:01:55;;;;;;;4.35;2.00;;;11.20;99.90;;;;;;3395986;23;20262;-92
2022/07/28 01:07:16;;;;;;;3.80;2.20;;;11.60;99.90;;;;;;4992726;28;20058;-59
2022/07/28 01:10:05;;;;;;;6.45;2.40;;;11.20;99.90;;;;;;4951853;28;20133;-59
2022/07/28 01:12:54;;;;;;;6.40;2.13;;;10.70;99.90;;;;;;4976336;28;20466;-60
2022/07/28 01:15:39;;;;;;;5.00;2.22;;;11.30;99.90;;;;;;4975617;28;20090;-59
2022/07/28 01:18:14;;;;;;;4.82;2.20;;;11.30;99.90;;;;;;4980898;28;20050;-60
2022/07/28 01:20:52;;;;;;;5.32;2.15;;;10.80;99.90;;;;;;4978414;28;20050;-59
2022/07/28 01:23:31;;;;;;;5.05;2.03;;;10.90;99.90;;;;;;4995419;28;20061;-60
2022/07/28 01:25:59;;;;;;;4.95;2.10;;;11.30;99.90;;;;;;4995421;28;20050;-59
2022/07/28 01:28:48;;;;;;;3.67;1.90;;;11.30;99.90;;;;;;4995463;28;20046;-59
2022/07/28 01:31:22;;;;;;;4.35;2.00;;;10.40;99.90;;;;;;4995103;28;20042;-59
2022/07/28 01:33:54;;;;;;;7.60;2.20;;;11.40;99.90;;;;;;4993761;28;20042;-59
2022/07/28 01:36:27;;;;;;;3.47;1.98;;;10.60;99.90;;;;;;4981058;28;20050;-60
2022/07/28 01:38:54;;;;;;;3.65;1.95;;;11.20;99.90;;;;;;4975340;28;20438;-60
2022/07/28 01:41:26;;;;;;;5.18;2.22;;;11.20;99.90;;;;;;4975697;28;20086;-60
2022/07/28 01:44:00;;;;;;;3.95;1.80;;;12.00;99.90;;;;;;4941585;28;20047;-60
2022/07/28 01:46:27;;;;;;;4.97;2.00;;;11.50;99.90;;;;;;4975863;28;20100;-60
2022/07/28 01:48:54;;;;;;;4.20;2.08;;;10.70;99.90;;;;;;4975095;28;20403;-60
2022/07/28 01:51:24;;;;;;;4.25;1.90;;;11.20;99.90;;;;;;4975515;28;20047;-61
2022/07/28 01:53:52;;;;;;;4.90;1.98;;;11.10;99.90;;;;;;4975137;28;20402;-60
2022/07/28 01:56:20;;;;;;;5.35;2.10;;;11.20;99.90;;;;;;4975858;28;20059;-60
2022/07/28 01:58:48;;;;;;;11.10;2.40;;;11.20;99.90;;;;;;4957598;28;20051;-60
2022/07/28 02:01:16;;;;;;;4.72;2.00;;;10.70;99.90;;;;;;4975581;28;20101;-60
2022/07/28 02:03:43;;;;;;;5.35;2.15;;;11.20;99.90;;;;;;4975283;28;20487;-60
2022/07/28 02:06:11;;;;;;;3.22;2.00;;;11.30;99.90;;;;;;4975303;28;20061;-60
2022/07/28 02:08:39;;;;;;;6.13;2.17;;;11.30;99.90;;;;;;4975001;28;20051;-61
2022/07/28 02:13:52;;;;;;;4.72;2.30;;;11.10;99.90;;;;;;4974544;28;20047;-61
2022/07/28 02:16:21;;;;;;;5.63;2.20;;;11.20;99.90;;;;;;4975132;28;20046;-61
2022/07/28 02:18:49;;;;;;;4.47;2.00;;;11.30;99.90;;;;;;4974994;28;20051;-60
2022/07/28 02:21:15;;;;;;;4.55;2.20;;;11.20;99.90;;;;;;4975154;28;20509;-60
2022/07/28 02:23:44;;;;;;;3.40;2.10;;;10.70;99.90;;;;;;4974947;28;20487;-60
2022/07/28 02:26:12;;;;;;;5.68;2.25;;;11.00;99.90;;;;;;4975205;28;20125;-60
2022/07/28 02:28:42;;;;;;;3.35;2.00;;;11.00;99.90;;;;;;4974289;28;20047;-60
2022/07/28 02:31:18;;;;;;;5.28;2.25;;;10.50;99.90;;;;;;4974445;28;20106;-59
2022/07/28 02:33:46;;;;;;;6.18;2.15;;;11.00;99.90;;;;;;4974498;28;20050;-58
2022/07/28 02:36:25;;;;;;;4.78;2.25;;;11.00;99.90;;;;;;4975042;28;20418;-58
2022/07/28 02:38:55;;;;;;;5.90;2.28;;;10.90;99.90;;;;;;4974120;28;20065;-58
2022/07/28 02:41:26;;;;;;;3.60;1.95;;;11.00;99.90;;;;;;4974864;28;20058;-59
2022/07/28 02:43:59;;;;;;;6.05;2.22;;;10.80;99.90;;;;;;4973536;28;20054;-59
2022/07/28 02:46:31;;;;;;;4.65;2.10;;;10.50;99.90;;;;;;4941625;28;20062;-59
2022/07/28 02:49:03;;;;;;;5.18;2.25;;;10.80;99.90;;;;;;4974092;28;20066;-58
2022/07/28 02:51:31;;;;;;;4.93;2.03;;;10.70;99.90;;;;;;4974675;28;20126;-58
2022/07/28 02:53:58;;;;;;;5.13;2.33;;;10.80;99.90;;;;;;4973911;28;20047;-60
2022/07/28 02:56:25;;;;;;;7.80;2.28;;;10.70;99.90;;;;;;4974358;28;20379;-59
2022/07/28 02:58:53;;;;;;;4.95;2.35;;;10.50;99.90;;;;;;4973908;28;20122;-58
2022/07/28 03:01:20;;;;;;;4.28;2.10;;;10.80;99.90;;;;;;4974208;28;20053;-59
2022/07/28 03:03:47;;;;;;;6.95;2.28;;;10.40;99.90;;;;;;4974077;28;20405;-59
2022/07/28 03:06:15;;;;;;;4.93;2.17;;;10.70;99.90;;;;;;4974432;28;20051;-59
2022/07/28 03:08:42;;;;;;;4.63;2.40;;;10.30;99.90;;;;;;4956684;28;20140;-59
2022/07/28 03:11:12;;;;;;;4.00;2.30;;;10.80;99.90;;;;;;4956576;28;20058;-59
2022/07/28 03:13:40;;;;;;;3.92;2.22;;;10.80;99.90;;;;;;4973984;28;20101;-59
2022/07/28 03:16:06;;;;;;;3.50;2.10;;;10.90;99.90;;;;;;4974220;28;20461;-59
2022/07/28 03:18:33;;;;;;;4.75;2.22;;;10.60;99.90;;;;;;4972945;28;20494;-60
2022/07/28 03:20:58;;;;;;;3.75;2.30;;;10.60;99.90;;;;;;4973675;28;20113;-60
2022/07/28 03:23:31;;;;;;;6.70;2.13;;;10.50;99.90;;;;;;4973970;28;20426;-60
2022/07/28 03:26:04;;;;;;;6.55;2.20;;;10.40;99.90;;;;;;4973540;28;20093;-60
2022/07/28 03:28:31;;;;;;;4.90;2.53;;;10.40;99.90;;;;;;4974120;28;20046;-60
2022/07/28 03:31:04;;;;;;;6.72;2.65;;;10.10;99.90;;;;;;4973289;28;20051;-60
2022/07/28 03:33:30;;;;;;;5.68;2.67;;;10.40;99.90;;;;;;4973847;28;20050;-60
2022/07/28 03:36:01;;;;;;;7.38;2.72;;;10.40;99.90;;;;;;4973241;28;20059;-60
2022/07/28 03:38:40;;;;;;;5.88;2.72;;;10.00;99.90;;;;;;4956602;28;20383;-60
2022/07/28 03:41:08;;;;;;;6.82;2.70;;;10.40;99.90;;;;;;4973170;28;20047;-60
2022/07/28 03:43:38;;;;;;;6.43;2.58;;;10.30;99.90;;;;;;4973696;28;20137;-58
2022/07/28 03:46:06;;;;;;;5.82;2.60;;;10.00;99.90;;;;;;4973335;28;20062;-58
2022/07/28 03:48:33;;;;;;;6.20;2.80;;;10.50;99.90;;;;;;4972501;28;20046;-59
2022/07/28 03:50:59;;;;;;;6.00;2.60;;;10.40;99.90;;;;;;4956093;28;20059;-58
2022/07/28 03:53:27;;;;;;;3.65;2.60;;;10.60;99.90;;;;;;4973373;28;20076;-61
2022/07/28 03:55:53;;;;;;;5.35;2.55;;;10.60;99.90;;;;;;4972328;28;20047;-61
2022/07/28 03:58:20;;;;;;;6.07;2.72;;;10.00;99.90;;;;;;4940057;28;20137;-60
2022/07/28 04:00:48;;;;;;;5.75;2.50;;;10.50;99.90;;;;;;4972800;28;20117;-61
2022/07/28 04:03:14;;;;;;;6.93;2.50;;;10.40;99.90;;;;;;4973591;28;20047;-60
2022/07/28 04:05:40;;;;;;;4.68;2.72;;;;;;;;;;4972878;28;20051;-60
2022/07/28 04:08:05;;;;;;;7.47;2.55;;;10.40;99.90;;;;;;4973109;28;20058;-60
2022/07/28 04:10:31;;;;;;;4.82;2.38;;;10.60;99.90;;;;;;4973064;28;20456;-60
2022/07/28 04:12:58;;;;;;;5.75;2.60;;;10.40;99.90;;;;;;4972401;28;20047;-60
2022/07/28 04:15:26;;;;;;;6.35;2.60;;;10.40;99.90;;;;;;4973140;28;20509;-60
2022/07/28 04:17:53;;;;;;;8.32;3.10;;;10.40;99.90;;;;;;4972596;28;20521;-60
2022/07/28 04:20:22;;;;;;;8.95;2.80;;;10.10;99.90;;;;;;4973286;28;20054;-60
2022/07/28 04:22:49;;;;;;;7.65;2.90;;;10.50;99.90;;;;;;4972784;28;20042;-58
2022/07/28 04:25:16;;;;;;;5.38;2.80;;;10.50;99.90;;;;;;4939544;28;20058;-59
2022/07/28 04:27:42;;;;;;;5.22;3.08;;;10.50;99.90;;;;;;4972639;28;20116;-59
2022/07/28 04:30:16;;;;;;;4.85;2.78;;;10.60;99.90;;;;;;4973164;28;20050;-59
2022/07/28 04:32:43;;;;;;;8.38;2.90;;;10.70;99.90;;;;;;4955288;28;20046;-57
2022/07/28 04:35:10;;;;;;;5.05;2.90;;;10.60;99.90;;;;;;4973440;28;20117;-57
2022/07/28 04:37:37;;;;;;;10.88;2.80;;;10.80;99.90;;;;;;4972674;28;20140;-57
2022/07/28 04:40:05;;;;;;;6.03;2.85;;;11.30;99.90;;;;;;4955358;28;20042;-57
2022/07/28 04:42:30;;;;;;;7.63;3.00;;;10.60;99.90;;;;;;4973202;28;20057;-57
2022/07/28 04:44:56;;;;;;;8.57;3.00;;;10.90;99.90;;;;;;4972506;28;20039;-57
2022/07/28 04:47:23;;;;;;;7.60;3.10;;;;;;;;;;4972977;28;20053;-57
2022/07/28 04:49:49;;;;;;;8.00;2.80;;;11.00;99.90;;;;;;4972622;28;20105;-57
2022/07/28 04:52:15;;;;;;;7.22;3.38;;;11.50;99.90;;;;;;4972810;28;20055;-58
2022/07/28 04:54:41;;;;;;;7.00;3.20;;;12.20;99.90;;;;;;4972396;28;20106;-59
2022/07/28 04:57:09;;;;;;;7.57;2.95;;;;;;;;;;4972949;28;20055;-57
2022/07/28 04:59:35;;;;;;;8.27;2.90;;;;;;;;;;4939694;28;20069;-58
2022/07/28 05:02:01;;;;;;;6.78;2.90;;;13.80;99.90;;;;;;4955515;28;20093;-60
2022/07/28 05:04:27;;;;;;;9.80;2.80;;;14.30;99.90;;;;;;4972658;28;20445;-58
2022/07/28 05:06:53;;;;;;;5.65;2.85;;;15.10;99.90;;;;;;4972046;28;20061;-58
2022/07/28 05:09:20;;;;;;;6.75;2.70;;;15.80;99.90;;;;;;4959124;28;20054;-58
2022/07/28 05:11:46;;;;;;;6.85;2.85;;;16.40;99.90;;;;;;4975938;28;20443;-58
2022/07/28 05:14:12;;;;;;;6.35;2.70;;;17.60;99.90;;;;;;4976523;28;20050;-58
2022/07/28 05:16:38;;;;;;;9.13;2.80;;;19.60;99.90;;;;;;4976070;28;20493;-59
2022/07/28 05:19:04;;;;;;;6.40;3.00;;;19.00;99.90;;;;;;4975648;28;20050;-60
2022/07/28 05:21:29;;;;;;;8.60;2.88;;;20.50;99.90;;;;;;4975692;28;20051;-60
2022/07/28 05:23:55;;;;;;;5.47;2.80;;;21.80;99.90;;;;;;4975353;28;20047;-60
2022/07/28 05:26:21;;;;;;;5.20;2.67;;;22.10;99.50;;;;;;4976137;28;20050;-59
2022/07/28 05:28:46;;;;;;;4.90;2.60;;;22.70;94.60;;;;;;4975313;28;20046;-58
2022/07/28 05:31:13;;;;;;;7.38;2.75;;;24.00;92.00;;;;;;4976119;28;20119;-59
2022/07/28 05:33:39;;;;;;;4.90;2.90;;;24.20;84.80;;;;;;4975528;28;20459;-59
2022/07/28 05:36:05;;;;;;;7.32;2.70;;;24.70;80.50;;;;;;4975612;28;20446;-59
2022/07/28 05:38:31;;;;;;;6.80;2.80;;;25.00;76.30;;;;;;4975366;28;20085;-59
2022/07/28 05:40:58;;;;;;;5.38;2.50;;;25.60;72.00;;;;;;4975195;28;20051;-61
2022/07/28 05:43:24;;;;;;;7.32;2.70;;;26.10;68.60;;;;;;4958365;28;20110;-61
2022/07/28 05:45:51;;;;;;;5.78;2.72;;;27.00;70.00;;;;;;4974058;28;20183;-61
2022/07/28 05:48:18;;;;;;;10.90;2.72;;;27.00;63.10;;;;;;4957802;28;20043;-61
2022/07/28 05:50:45;;;;;;;5.38;2.30;;;27.40;61.00;;;;;;4957514;28;20503;-62
2022/07/28 05:53:11;;;;;;;12.43;4.47;;;27.90;66.10;;;;;;4975655;28;20043;-60
2022/07/28 05:55:37;;;;;;;6.32;2.35;;;28.20;57.80;;;;;;4974498;28;20568;-60
2022/07/28 05:58:03;;;;;;;8.65;2.63;;;28.40;56.40;;;;;;4975006;28;20050;-60
2022/07/28 06:00:31;;;;;;;7.88;2.30;;;28.00;59.40;;;;;;4975723;28;20057;-60
2022/07/28 06:03:00;;;;;;;6.28;2.30;;;29.10;53.90;;;;;;4957093;28;20399;-62
2022/07/28 06:05:28;;;;;;;8.57;2.20;;;29.50;52.40;;;;;;4975372;28;20055;-59
2022/07/28 06:07:54;;;;;;;6.50;2.10;;;29.30;56.90;;;;;;4974896;28;20046;-60
2022/07/28 06:10:22;;;;;;;10.02;2.22;;;29.70;50.80;;;;;;4975463;28;20047;-60
2022/07/28 06:12:51;;;;;;;13.77;2.65;;;29.90;50.40;;;;;;4941676;28;20073;-60
2022/07/28 06:15:22;;;;;;;9.65;2.15;;;30.30;49.20;;;;;;4975357;28;20053;-60
2022/07/28 06:17:52;;;;;;;7.28;2.10;;;30.70;55.90;;;;;;4974671;28;20042;-61
2022/07/28 06:20:20;;;;;;;9.45;1.92;;;30.60;47.90;;;;;;4974216;28;20043;-60
2022/07/28 06:22:48;;;;;;;6.13;1.90;;;30.20;47.40;;;;;;4974434;28;20453;-60
2022/07/28 06:25:18;;;;;;;4.38;1.60;;;28.60;56.50;;;;;;4975421;28;20049;-60
2022/07/28 06:27:47;;;;;;;13.38;1.83;;;28.70;48.60;;;;;;4974459;28;20118;-60
2022/07/28 06:30:13;;;;;;;13.15;2.15;;;26.70;58.10;;;;;;4974821;28;20043;-62
2022/07/28 06:32:39;;;;;;;10.93;2.28;;;27.00;50.60;;;;;;4956992;28;20058;-60
2022/07/28 06:35:06;;;;;;;11.57;2.10;;;26.30;52.20;;;;;;4974135;28;20131;-60
2022/07/28 06:37:32;;;;;;;13.98;2.17;;;25.10;63.70;;;;;;4941157;28;20553;-60
2022/07/28 06:39:57;;;;;;;13.07;1.90;;;24.50;64.10;;;;;;4957056;28;20055;-60
2022/07/28 06:42:23;;;;;;;5.25;1.75;;;24.60;67.30;;;;;;4974598;28;20141;-60
2022/07/28 06:44:52;;;;;;;13.63;2.03;;;24.80;63.90;;;;;;4973597;28;20046;-61
2022/07/28 06:47:19;;;;;;;12.35;1.95;;;25.60;62.00;;;;;;4974548;28;20039;-61
2022/07/28 06:49:45;;;;;;;10.05;1.63;;;25.90;61.60;;;;;;4973872;28;20469;-60
2022/07/28 06:52:11;;;;;;;12.07;1.90;;;25.90;53.50;;;;;;4974313;28;20059;-61
2022/07/28 06:54:37;;;;;;;5.00;1.52;;;26.40;58.50;;;;;;4974118;28;20090;-60
2022/07/28 06:57:03;;;;;;;8.20;1.80;;;26.80;50.70;;;;;;4974227;28;20082;-60
2022/07/28 06:59:29;;;;;;;5.55;1.70;;;26.90;50.90;;;;;;4956945;28;20570;-60
2022/07/28 07:02:00;;;;;;;10.55;1.80;;;26.30;51.50;;;;;;4973611;28;20065;-62
2022/07/28 07:04:27;;;;;;;7.72;1.70;;;25.70;52.80;;;;;;4956643;28;20078;-62
2022/07/28 07:06:52;;;;;;;8.20;1.63;;;24.60;62.50;;;;;;4956388;28;20390;-62
2022/07/28 07:09:18;;;;;;;6.10;1.35;;;24.60;55.40;;;;;;4974117;28;20057;-62
2022/07/28 07:11:44;;;;;;;2.90;1.15;;;24.30;56.10;;;;;;4973728;28;20057;-62
2022/07/28 07:14:09;;;;;;;4.55;1.60;;;24.00;55.80;;;;;;4974145;28;20513;-62
2022/07/28 07:16:35;;;;;;;6.95;1.55;;;23.40;56.40;;;;;;4974238;28;20425;-62
2022/07/28 07:19:01;;;;;;;6.90;1.50;;;23.30;66.30;;;;;;4972936;28;20098;-62
2022/07/28 07:21:26;;;;;;;8.02;1.60;;;23.20;58.20;;;;;;4974297;28;20450;-62
2022/07/28 07:23:52;;;;;;;6.93;1.45;;;23.30;58.20;;;;;;4972268;28;20047;-61
2022/07/28 07:26:18;;;;;;;3.55;1.42;;;23.30;57.70;;;;;;4959159;28;20069;-61
2022/07/28 07:28:44;;;;;;;6.75;1.77;;;23.10;70.60;;;;;;4974801;28;20501;-61
2022/07/28 07:31:10;;;;;;;5.22;1.63;;;23.20;67.90;;;;;;4980621;28;20047;-61
2022/07/28 07:33:36;;;;;;;5.65;1.40;;;23.00;58.60;;;;;;4984411;28;20053;-61
2022/07/28 07:36:02;;;;;;;4.15;1.50;;;23.10;58.80;;;;;;4990072;28;20050;-61
2022/07/28 07:38:27;;;;;;;6.03;1.60;;;23.50;68.00;;;;;;4974378;28;20069;-61
2022/07/28 07:40:53;;;;;;;6.38;1.63;;;23.40;58.80;;;;;;4972665;28;20129;-61
2022/07/28 07:43:19;;;;;;;5.53;1.83;;;23.30;58.80;;;;;;4992214;28;20078;-61
2022/07/28 07:45:44;;;;;;;7.90;1.30;;;23.10;59.20;;;;;;4974267;28;20062;-61
2022/07/28 07:48:10;;;;;;;8.25;1.70;;;22.90;59.50;;;;;;4991259;28;20409;-61
2022/07/28 07:50:37;;;;;;;5.78;1.67;;;22.80;59.30;;;;;;4992539;28;20042;-62
2022/07/28 07:53:03;;;;;;;4.82;1.70;;;22.10;67.60;;;;;;4990844;28;20062;-62
2022/07/28 07:55:29;;;;;;;10.15;1.60;;;22.80;59.20;;;;;;4991255;28;20050;-62
2022/07/28 07:57:55;;;;;;;6.50;1.30;;;23.20;59.30;;;;;;4990787;28;20061;-62
2022/07/28 08:00:21;;;;;;;3.45;1.30;;;23.00;66.70;;;;;;4992386;28;20042;-62
2022/07/28 08:02:47;;;;;;;5.57;1.65;;;22.90;57.90;;;;;;4973148;28;20046;-62
2022/07/28 08:05:13;;;;;;;4.53;1.23;;;22.80;57.50;;;;;;4991678;28;20054;-62
2022/07/28 08:07:39;;;;;;;4.05;1.38;;;22.80;65.40;;;;;;4991674;28;20509;-62
2022/07/28 08:10:06;;;;;;;6.97;1.70;;;22.60;57.40;;;;;;4991063;28;20054;-62
2022/07/28 08:12:32;;;;;;;4.03;1.33;;;22.70;58.10;;;;;;4991450;28;20055;-62
2022/07/28 08:14:57;;;;;;;3.83;1.40;;;21.90;66.40;;;;;;4973469;28;20054;-62
2022/07/28 08:17:23;;;;;;;4.65;1.33;;;21.70;68.30;;;;;;4991959;28;20486;-63
2022/07/28 08:19:49;;;;;;;7.03;1.90;;;;;;;;;;4991177;28;20516;-62
2022/07/28 08:22:16;;;;;;;6.03;1.48;;;21.10;71.30;;;;;;4991735;28;20114;-62
2022/07/28 08:24:42;;;;;;;6.60;1.70;;;21.40;72.60;;;;;;4991165;28;20445;-62
2022/07/28 08:27:08;;;;;;;5.78;1.80;;;21.30;72.20;;;;;;4990704;28;20042;-62
2022/07/28 08:29:34;;;;;;;6.50;1.70;;;21.40;63.70;;;;;;4991650;28;20058;-62
2022/07/28 08:32:03;;;;;;;4.97;1.80;;;21.00;76.80;;;;;;4973647;28;20060;-62
2022/07/28 08:34:32;;;;;;;6.95;1.60;;;20.90;65.00;;;;;;4991513;28;20121;-64
2022/07/28 08:36:58;;;;;;;6.45;1.80;;;20.70;78.70;;;;;;4990758;28;20639;-62
2022/07/28 08:39:24;;;;;;;6.63;1.90;;;20.50;66.80;;;;;;4990705;28;20086;-63
2022/07/28 08:42:13;;;;;;;4.30;1.58;;;20.30;80.90;;;;;;4991126;28;20042;-62
2022/07/28 08:44:45;;;;;;;5.65;1.70;;;19.80;78.80;;;;;;4994819;28;20461;-62
2022/07/28 08:47:12;;;;;;;3.05;1.50;;;20.30;85.00;;;;;;4995096;28;20038;-59
2022/07/28 08:49:39;;;;;;;7.03;2.00;;;20.60;81.50;;;;;;4977684;28;20074;-60
2022/07/28 08:52:08;;;;;;;6.07;1.83;;;20.50;71.80;;;;;;4977924;28;20050;-60
2022/07/28 08:54:35;;;;;;;7.05;1.60;;;20.80;71.80;;;;;;4977177;28;20061;-60
2022/07/28 08:57:02;;;;;;;4.43;1.60;;;21.20;79.80;;;;;;4994519;28;20453;-60
2022/07/28 08:59:29;;;;;;;4.80;1.45;;;21.00;70.70;;;;;;4994870;28;20075;-60
2022/07/28 09:01:54;;;;;;;5.78;1.60;;;21.30;69.60;;;;;;4977134;28;20058;-60
2022/07/28 09:04:21;;;;;;;3.83;1.55;;;21.40;69.10;;;;;;4995121;28;20575;-60
2022/07/28 09:06:47;;;;;;;5.55;1.42;;;21.40;67.80;;;;;;4993991;28;20493;-59
2022/07/28 09:09:13;;;;;;;6.75;1.58;;;21.50;67.50;;;;;;4994326;28;20453;-59
2022/07/28 09:11:39;;;;;;;4.28;1.50;;;21.70;67.40;;;;;;4990394;28;20174;-59
2022/07/28 09:14:05;;;;;;;5.32;1.67;;;21.70;75.10;;;;;;4974300;28;20078;-59
2022/07/28 09:16:31;;;;;;;5.18;1.58;;;21.80;74.30;;;;;;4975608;28;20046;-59
2022/07/28 09:18:57;;;;;;;6.20;1.60;;;21.80;66.10;;;;;;4975648;28;20047;-59
2022/07/28 09:21:22;;;;;;;5.45;1.60;;;21.70;66.20;;;;;;4975622;28;20058;-59
2022/07/28 09:23:49;;;;;;;15.45;1.98;;;21.60;66.60;;;;;;4975182;28;20053;-59
2022/07/28 09:26:16;;;;;;;4.68;1.65;;;21.80;77.20;;;;;;4958995;28;20066;-62
2022/07/28 09:28:53;;;;;;;8.00;1.50;;;21.60;66.90;;;;;;4957995;28;20058;-62
2022/07/28 09:31:20;;;;;;;5.53;1.30;;;22.20;73.80;;;;;;4958474;28;20054;-62
2022/07/28 09:33:53;;;;;;;8.65;1.70;;;21.60;65.30;;;;;;4957983;28;20402;-62
2022/07/28 09:36:20;;;;;;;5.35;1.45;;;21.80;65.70;;;;;;4976125;28;20126;-62
2022/07/28 09:38:46;;;;;;;4.53;1.40;;;21.90;73.70;;;;;;4975114;28;20055;-62
2022/07/28 09:41:13;;;;;;;5.63;1.45;;;21.70;64.30;;;;;;4975654;28;20042;-62
2022/07/28 09:43:43;;;;;;;4.55;1.50;;;21.20;73.90;;;;;;4974633;28;20494;-62
2022/07/28 09:46:10;;;;;;;10.85;1.70;;;21.20;64.30;;;;;;4958632;28;20089;-62
2022/07/28 09:48:48;;;;;;;4.00;1.40;;;20.90;73.80;;;;;;4975418;28;20437;-62
2022/07/28 09:51:16;;;;;;;5.20;1.58;;;21.00;66.20;;;;;;4975532;28;20070;-62
2022/07/28 09:53:43;;;;;;;4.93;1.35;;;20.70;77.00;;;;;;4973908;28;20054;-60
2022/07/28 09:56:10;;;;;;;2.88;1.25;;;21.30;65.10;;;;;;4975375;28;20055;-59
2022/07/28 09:58:36;;;;;;;3.83;1.50;;;21.50;64.60;;;;;;4974744;28;20495;-62
2022/07/28 10:01:03;;;;;;;2.65;1.27;;;21.70;64.60;;;;;;4974660;28;20083;-60
2022/07/28 10:03:29;;;;;;;2.75;1.30;;;21.70;63.70;;;;;;4983202;28;20125;-61
2022/07/28 10:05:57;;;;;;;3.75;1.25;;;21.50;72.20;;;;;;4974812;28;20050;-60
2022/07/28 10:08:42;;;;;;;6.25;1.40;;;21.90;62.70;;;;;;4978399;28;20422;-60
2022/07/28 10:11:09;;;;;;;4.88;1.50;;;22.10;61.80;;;;;;4982389;28;20061;-57
2022/07/28 10:13:50;;;;;;;3.72;1.30;;;22.00;61.90;;;;;;4983800;28;20101;-60
2022/07/28 10:16:15;;;;;;;5.85;1.40;;;22.10;71.80;;;;;;4992904;28;20058;-60
2022/07/28 10:18:41;;;;;;;6.05;1.38;;;22.30;61.50;;;;;;4959855;28;20054;-60
2022/07/28 10:21:12;;;;;;;6.20;1.60;;;22.50;60.60;;;;;;4992858;28;20078;-60
2022/07/28 10:23:38;;;;;;;4.80;1.60;;;22.80;59.60;;;;;;4994090;28;20470;-57
2022/07/28 10:26:11;;;;;;;3.78;1.48;;;22.60;59.00;;;;;;4973638;28;20379;-57
2022/07/28 10:28:42;;;;;;;2.72;1.33;;;22.60;59.00;;;;;;4956327;28;20050;-57
2022/07/28 10:31:10;;;;;;;3.05;1.23;;;22.50;59.10;;;;;;4973777;28;20133;-57
2022/07/28 10:33:45;;;;;;;5.70;1.50;;;22.40;59.60;;;;;;4974786;28;20406;-60
2022/07/28 10:36:12;;;;;;;3.55;1.40;;;22.00;59.70;;;;;;4987209;28;20059;-60
2022/07/28 10:38:39;;;;;;;3.70;1.48;;;21.70;61.40;;;;;;4976178;28;20486;-61
2022/07/28 10:41:07;;;;;;;4.60;1.20;;;21.40;62.30;;;;;;4975842;28;20054;-60
2022/07/28 10:43:34;;;;;;;5.90;1.63;;;21.40;62.60;;;;;;4960321;28;20486;-57
2022/07/28 10:46:02;;;;;;;7.07;1.60;;;21.40;62.80;;;;;;4993293;28;20042;-57
2022/07/28 10:48:28;;;;;;;3.85;1.45;;;20.80;72.40;;;;;;4993216;28;20069;-57
2022/07/28 10:50:55;;;;;;;7.32;1.58;;;21.00;62.60;;;;;;4974629;28;20042;-58
2022/07/28 10:53:39;;;;;;;4.97;1.55;;;20.90;62.80;;;;;;4976308;28;20050;-60
2022/07/28 10:56:14;;;;;;;5.15;1.40;;;20.70;62.70;;;;;;4992907;28;20068;-60
2022/07/28 10:58:50;;;;;;;4.47;1.40;;;21.00;74.80;;;;;;4993642;28;20058;-58
2022/07/28 11:01:40;;;;;;;4.03;1.50;;;20.80;63.70;;;;;;4993246;28;20446;-58
2022/07/28 11:04:06;;;;;;;5.82;1.55;;;20.80;62.20;;;;;;4973139;28;20058;-58
2022/07/28 11:06:41;;;;;;;2.17;1.30;;;20.80;73.00;;;;;;4975260;28;20062;-57
2022/07/28 11:09:16;;;;;;;3.53;1.35;;;20.70;63.30;;;;;;4973189;28;20105;-58
2022/07/28 11:11:50;;;;;;;6.65;1.75;;;21.00;63.40;;;;;;4982676;28;20065;-57
2022/07/28 11:14:21;;;;;;;8.35;1.40;;;21.40;62.20;;;;;;4989858;28;20569;-60
2022/07/28 11:17:00;;;;;;;3.85;1.50;;;21.80;61.50;;;;;;4992520;28;20085;-61
2022/07/28 11:19:52;;;;;;;6.15;1.38;;;21.90;66.90;;;;;;4992952;28;20513;-61
2022/07/28 11:22:17;;;;;;;5.88;1.40;;;22.10;59.10;;;;;;4993208;28;20042;-61
2022/07/28 11:24:56;;;;;;;2.13;1.23;;;22.10;59.60;;;;;;4975324;28;20046;-61
2022/07/28 11:27:39;;;;;;;4.70;1.40;;;22.10;59.50;;;;;;4993147;28;20054;-61
2022/07/28 11:30:06;;;;;;;3.97;1.30;;;22.20;62.30;;;;;;4975382;28;20061;-61
2022/07/28 11:32:58;;;;;;;4.05;1.40;;;22.20;60.50;;;;;;4987027;28;20051;-61
2022/07/28 11:35:51;;;;;;;3.17;1.30;;;22.30;59.30;;;;;;4976894;28;20054;-58
2022/07/28 11:38:18;;;;;;;4.22;1.40;;;22.40;59.30;;;;;;4984775;28;20050;-59
2022/07/28 11:40:50;;;;;;;3.05;1.50;;;22.70;58.70;;;;;;4992086;28;20050;-58
2022/07/28 11:43:22;;;;;;;7.00;1.83;;;22.80;58.30;;;;;;4991540;28;20440;-61
2022/07/28 11:46:01;;;;;;;3.85;1.40;;;22.90;58.10;;;;;;4992075;28;20045;-62
2022/07/28 11:48:28;;;;;;;2.95;1.40;;;22.90;57.20;;;;;;4992793;28;20050;-61
2022/07/28 11:51:03;;;;;;;5.10;1.50;;;23.00;56.20;;;;;;4992291;28;20046;-61
2022/07/28 11:53:47;;;;;;;9.65;1.63;;;22.80;55.90;;;;;;4991870;28;20042;-61
2022/07/28 11:56:24;;;;;;;2.53;1.20;;;22.70;56.80;;;;;;4992497;28;20054;-61
2022/07/28 11:59:10;;;;;;;3.10;1.35;;;21.80;63.20;;;;;;4991706;28;20126;-61
2022/07/28 12:01:35;;;;;;;4.40;1.42;;;21.40;65.00;;;;;;4992732;28;20396;-61
2022/07/28 12:04:10;;;;;;;2.88;1.08;;;22.40;57.80;;;;;;4992208;28;20108;-61
2022/07/28 12:06:39;;;;;;;5.50;1.40;;;22.70;57.50;;;;;;4975269;28;20054;-61
2022/07/28 12:09:08;;;;;;;2.55;1.50;;;22.90;57.00;;;;;;4992073;28;20046;-61
2022/07/28 12:11:41;;;;;;;2.97;1.30;;;23.00;56.60;;;;;;4993012;28;20054;-62
2022/07/28 12:14:09;;;;;;;4.93;1.10;;;23.30;56.20;;;;;;4974538;28;20062;-61
2022/07/28 12:16:38;;;;;;;2.58;1.13;;;23.30;55.90;;;;;;4993615;28;20066;-58
2022/07/28 12:19:06;;;;;;;3.00;1.50;;;23.40;56.10;;;;;;4998574;28;20505;-58
2022/07/28 12:21:42;;;;;;;3.25;1.30;;;23.70;57.30;;;;;;4998878;28;20062;-61
2022/07/28 12:24:10;;;;;;;2.25;1.10;;;24.00;55.40;;;;;;4998650;28;20050;-61
2022/07/28 12:26:38;;;;;;;5.30;1.60;;;23.00;59.30;;;;;;4999209;28;20121;-61
2022/07/28 12:29:04;;;;;;;4.88;1.60;;;23.90;53.60;;;;;;4998510;28;20089;-62
2022/07/28 12:31:32;;;;;;;4.07;1.23;;;23.90;53.90;;;;;;4999170;28;20053;-62
2022/07/28 12:34:04;;;;;;;3.15;1.30;;;23.70;54.70;;;;;;4998425;28;20058;-62
2022/07/28 12:36:32;;;;;;;7.88;1.30;;;23.50;56.00;;;;;;4998512;28;20054;-61
2022/07/28 12:39:00;;;;;;;3.03;1.40;;;23.20;56.30;;;;;;4998415;28;20462;-61
2022/07/28 12:41:37;;;;;;;3.13;1.35;;;22.90;56.90;;;;;;4981393;28;20046;-59
2022/07/28 12:44:04;;;;;;;3.92;1.40;;;22.70;57.40;;;;;;4998132;28;20481;-59
2022/07/28 12:46:31;;;;;;;5.40;1.67;;;22.80;57.40;;;;;;4981528;28;20117;-60
2022/07/28 12:48:59;;;;;;;5.78;1.52;;;22.70;57.30;;;;;;4998436;28;20054;-61
2022/07/28 12:51:41;;;;;;;7.75;1.48;;;22.70;57.60;;;;;;4981355;28;20065;-61
2022/07/28 12:54:09;;;;;;;5.78;1.73;;;22.80;57.20;;;;;;4998792;28;20042;-61
2022/07/28 12:56:47;;;;;;;4.70;1.40;;;22.90;57.20;;;;;;4998600;28;20049;-62
2022/07/28 12:59:13;;;;;;;4.60;1.75;;;22.70;56.20;;;;;;4998734;28;20050;-61
2022/07/28 13:01:54;;;;;;;4.07;1.30;;;23.20;65.90;;;;;;4998331;28;20046;-61
2022/07/28 13:04:41;;;;;;;6.38;1.65;;;22.40;57.50;;;;;;4998418;28;20104;-58
2022/07/28 13:07:13;;;;;;;4.88;1.50;;;22.50;59.10;;;;;;4997189;28;20557;-58
2022/07/28 13:09:45;;;;;;;4.07;1.48;;;22.40;59.50;;;;;;4998597;28;20404;-58